createdAt,value
2018-12-14T00:02:06.764Z,9.23
2018-12-14T00:04:34.810Z,10.23
2018-12-14T00:07:02.313Z,10.03
2018-12-14T00:09:29.314Z,11.07
2018-12-14T00:11:56.464Z,10.73
2018-12-14T00:14:23.454Z,11.40
2018-12-14T00:16:50.566Z,9.77
2018-12-14T00:19:19.660Z,8.63
2018-12-14T00:24:22.073Z,9.37
2018-12-14T00:26:49.230Z,8.97
2018-12-14T00:29:16.317Z,8.87
2018-12-14T00:31:45.309Z,10.47
2018-12-14T00:34:12.429Z,9.33
2018-12-14T00:36:39.482Z,9.77
2018-12-14T00:39:07.533Z,9.53
2018-12-14T00:41:34.583Z,9.00
2018-12-14T00:44:01.771Z,10.63
2018-12-14T00:46:28.824Z,10.27
2018-12-14T00:51:40.600Z,9.87
2018-12-14T00:54:08.326Z,9.77
2018-12-14T00:56:35.414Z,9.60
2018-12-14T00:59:02.522Z,8.77
2018-12-14T01:01:29.654Z,9.40
2018-12-14T01:03:56.676Z,9.83
2018-12-14T01:06:23.752Z,9.73
2018-12-14T01:08:50.789Z,9.70
2018-12-14T01:11:18.337Z,10.33
2018-12-14T01:13:45.394Z,10.40
2018-12-14T01:16:12.524Z,9.63
2018-12-14T01:18:39.731Z,10.50
2018-12-14T01:21:06.786Z,9.93
2018-12-14T01:23:33.833Z,9.77
2018-12-14T01:26:00.909Z,10.73
2018-12-14T01:28:28.063Z,10.17
2018-12-14T01:30:55.201Z,9.77
2018-12-14T01:33:22.535Z,10.77
2018-12-14T01:35:49.768Z,9.57
2018-12-14T01:38:16.827Z,10.40
2018-12-14T01:40:43.983Z,9.53
2018-12-14T01:43:11.108Z,9.50
2018-12-14T01:45:38.248Z,10.27
2018-12-14T01:48:05.469Z,11.10
2018-12-14T01:50:33.094Z,10.70
2018-12-14T01:53:00.786Z,11.40
2018-12-14T01:55:28.754Z,9.97
2018-12-14T01:58:03.034Z,9.87
2018-12-14T02:00:30.245Z,9.47
2018-12-14T02:02:57.370Z,9.37
2018-12-14T02:05:24.520Z,9.97
2018-12-14T02:07:51.722Z,11.87
2018-12-14T02:10:19.048Z,11.17
2018-12-14T02:12:46.398Z,10.00
2018-12-14T02:15:13.545Z,9.73
2018-12-14T02:17:40.584Z,11.67
2018-12-14T02:20:07.689Z,10.93
2018-12-14T02:22:34.823Z,11.63
2018-12-14T02:25:02.239Z,11.77
2018-12-14T02:27:29.499Z,12.07
2018-12-14T02:29:56.635Z,11.00
2018-12-14T02:32:23.810Z,11.80
2018-12-14T02:37:47.014Z,9.60
2018-12-14T02:40:14.110Z,9.90
2018-12-14T02:42:41.292Z,8.97
2018-12-14T02:45:08.394Z,9.23
2018-12-14T02:47:35.522Z,9.33
2018-12-14T02:50:03.020Z,10.63
2018-12-14T02:52:30.106Z,9.57
2018-12-14T02:54:57.135Z,10.23
2018-12-14T02:57:24.163Z,9.80
2018-12-14T02:59:51.230Z,11.47
2018-12-14T03:02:18.347Z,10.50
2018-12-14T03:04:45.363Z,11.07
2018-12-14T03:07:12.383Z,10.00
2018-12-14T03:09:39.409Z,11.30
2018-12-14T03:12:06.503Z,11.57
2018-12-14T03:14:33.527Z,11.87
2018-12-14T03:17:00.543Z,10.40
2018-12-14T03:19:27.492Z,10.57
2018-12-14T03:21:54.516Z,11.10
2018-12-14T03:24:21.486Z,12.03
2018-12-14T03:26:48.534Z,12.03
2018-12-14T03:29:15.562Z,10.93
2018-12-14T03:31:42.629Z,12.27
2018-12-14T03:34:09.653Z,12.53
2018-12-14T03:36:37.153Z,11.77
2018-12-14T03:39:05.152Z,11.07
2018-12-14T03:41:33.048Z,12.30
2018-12-14T03:44:00.040Z,13.17
2018-12-14T03:46:27.147Z,14.27
2018-12-14T03:48:54.552Z,14.13
2018-12-14T03:54:04.392Z,13.23
2018-12-14T03:56:31.670Z,14.50
2018-12-14T03:58:58.794Z,14.00
2018-12-14T04:01:25.884Z,11.47
2018-12-14T04:03:52.922Z,13.07
2018-12-14T04:06:19.988Z,13.27
2018-12-14T04:08:47.086Z,13.27
2018-12-14T04:11:14.214Z,14.43
2018-12-14T04:13:41.369Z,13.10
2018-12-14T04:16:08.447Z,12.70
2018-12-14T04:18:35.527Z,12.60
2018-12-14T04:21:02.633Z,12.47
2018-12-14T04:23:29.832Z,15.50
2018-12-14T04:25:57.038Z,13.13
2018-12-14T04:28:24.068Z,13.60
2018-12-14T04:30:51.132Z,13.27
2018-12-14T04:33:18.188Z,12.20
2018-12-14T04:35:45.230Z,12.27
2018-12-14T04:38:12.245Z,11.50
2018-12-14T04:40:39.268Z,12.00
2018-12-14T04:43:06.270Z,11.93
2018-12-14T04:45:33.334Z,12.00
2018-12-14T04:48:01.402Z,12.13
2018-12-14T04:50:28.400Z,13.43
2018-12-14T04:52:55.544Z,13.40
2018-12-14T04:55:22.621Z,12.63
2018-12-14T04:57:49.722Z,13.67
2018-12-14T05:00:16.885Z,13.47
2018-12-14T05:02:44.005Z,14.67
2018-12-14T05:05:11.583Z,15.37
2018-12-14T05:07:44.796Z,16.73
2018-12-14T05:10:11.949Z,15.70
2018-12-14T05:12:39.146Z,14.13
2018-12-14T05:15:07.190Z,15.83
2018-12-14T05:17:34.236Z,14.73
2018-12-14T05:20:01.316Z,14.53
2018-12-14T05:22:28.458Z,14.70
2018-12-14T05:24:55.462Z,14.40
2018-12-14T05:27:22.553Z,15.10
2018-12-14T05:29:49.610Z,15.73
2018-12-14T05:32:16.764Z,14.57
2018-12-14T05:34:43.879Z,14.60
2018-12-14T05:37:11.054Z,14.63
2018-12-14T05:39:38.306Z,13.67
2018-12-14T05:42:05.478Z,14.53
2018-12-14T05:44:32.702Z,14.93
2018-12-14T05:46:59.755Z,15.97
2018-12-14T05:49:26.742Z,16.10
2018-12-14T05:51:53.743Z,15.53
2018-12-14T05:54:20.701Z,13.73
2018-12-14T05:56:47.658Z,14.27
2018-12-14T05:59:14.645Z,15.07
2018-12-14T06:01:41.697Z,15.27
2018-12-14T06:04:08.671Z,14.53
2018-12-14T06:06:35.661Z,14.27
2018-12-14T06:09:02.861Z,15.33
2018-12-14T06:11:29.899Z,15.70
2018-12-14T06:13:56.953Z,14.93
2018-12-14T06:16:24.087Z,13.37
2018-12-14T06:18:51.064Z,14.53
2018-12-14T06:21:18.030Z,13.60
2018-12-14T06:23:45.002Z,13.53
2018-12-14T06:26:14.646Z,14.13
2018-12-14T06:28:41.769Z,13.90
2018-12-14T06:31:09.352Z,12.77
2018-12-14T06:33:36.302Z,13.43
2018-12-14T06:36:03.263Z,13.90
2018-12-14T06:38:30.270Z,14.10
2018-12-14T06:40:58.278Z,13.63
2018-12-14T06:43:24.820Z,13.57
2018-12-14T06:45:51.864Z,14.23
2018-12-14T06:48:18.833Z,14.33
2018-12-14T06:50:45.859Z,14.50
2018-12-14T06:53:12.959Z,14.93
2018-12-14T06:55:40.042Z,14.43
2018-12-14T06:58:07.012Z,14.83
2018-12-14T07:00:33.945Z,16.07
2018-12-14T07:03:00.926Z,15.00
2018-12-14T07:05:28.129Z,15.50
2018-12-14T07:07:55.506Z,14.63
2018-12-14T07:10:22.548Z,15.27
2018-12-14T07:12:49.678Z,15.80
2018-12-14T07:15:17.240Z,14.17
2018-12-14T07:17:44.186Z,15.67
2018-12-14T07:20:11.334Z,14.13
2018-12-14T07:22:38.318Z,12.87
2018-12-14T07:25:05.433Z,13.60
2018-12-14T07:27:33.802Z,13.37
2018-12-14T07:30:00.964Z,13.37
2018-12-14T07:32:28.440Z,14.93
2018-12-14T07:34:55.460Z,14.97
2018-12-14T07:37:22.663Z,14.17
2018-12-14T07:39:49.883Z,14.43
2018-12-14T07:42:18.403Z,14.47
2018-12-14T07:44:45.734Z,12.83
2018-12-14T07:47:12.960Z,14.33
2018-12-14T07:49:39.961Z,13.70
2018-12-14T07:52:06.904Z,12.63
2018-12-14T07:54:33.881Z,13.50
2018-12-14T07:57:02.134Z,14.93
2018-12-14T07:59:29.175Z,14.20
2018-12-14T08:01:56.508Z,14.80
2018-12-14T08:04:24.011Z,14.60
2018-12-14T08:06:51.942Z,14.10
2018-12-14T08:09:19.121Z,14.53
2018-12-14T08:11:46.866Z,15.43
2018-12-14T08:14:15.121Z,15.60
2018-12-14T08:16:43.213Z,17.83
2018-12-14T08:24:05.427Z,14.57
2018-12-14T08:26:32.707Z,14.53
2018-12-14T08:28:59.835Z,14.30
2018-12-14T08:31:27.269Z,13.77
2018-12-14T08:33:54.392Z,15.87
2018-12-14T08:36:22.579Z,15.30
2018-12-14T08:38:50.636Z,15.37
2018-12-14T08:41:18.253Z,14.93
2018-12-14T08:43:45.952Z,13.27
2018-12-14T08:46:13.258Z,14.27
2018-12-14T08:48:40.501Z,12.80
2018-12-14T08:51:09.246Z,12.70
2018-12-14T08:53:37.274Z,13.27
2018-12-14T08:56:04.513Z,13.37
2018-12-14T08:58:32.109Z,13.70
2018-12-14T09:00:59.354Z,13.97
2018-12-14T09:03:26.737Z,12.90
2018-12-14T09:05:54.885Z,12.97
2018-12-14T09:08:34.671Z,12.33
2018-12-14T09:11:01.922Z,12.87
2018-12-14T09:13:29.301Z,12.53
2018-12-14T09:15:56.524Z,12.70
2018-12-14T09:18:23.871Z,12.40
2018-12-14T09:20:51.122Z,12.33
2018-12-14T09:23:18.490Z,12.80
2018-12-14T09:25:45.726Z,12.90
2018-12-14T09:28:12.954Z,12.70
2018-12-14T09:30:42.873Z,12.97
2018-12-14T09:33:07.968Z,12.50
2018-12-14T09:35:35.049Z,12.00
2018-12-14T09:38:02.407Z,11.63
2018-12-14T09:40:30.556Z,12.20
2018-12-14T09:42:58.158Z,12.83
2018-12-14T09:45:25.171Z,12.40
2018-12-14T09:47:53.138Z,12.10
2018-12-14T09:50:20.370Z,11.37
2018-12-14T09:52:48.389Z,11.37
2018-12-14T09:55:16.115Z,11.23
2018-12-14T09:57:47.784Z,12.23
2018-12-14T10:00:14.987Z,11.13
2018-12-14T10:02:42.179Z,11.57
2018-12-14T10:05:09.930Z,11.47
2018-12-14T10:07:37.854Z,13.57
2018-12-14T10:10:07.066Z,11.60
2018-12-14T10:12:34.269Z,11.83
2018-12-14T10:15:06.760Z,12.40
2018-12-14T10:17:34.041Z,12.40
2018-12-14T10:20:01.221Z,10.00
2018-12-14T10:22:28.296Z,9.40
2018-12-14T10:24:55.355Z,9.23
2018-12-14T10:27:23.278Z,10.47
2018-12-14T10:29:50.632Z,9.43
2018-12-14T10:32:17.974Z,9.03
2018-12-14T10:34:45.454Z,10.80
2018-12-14T10:37:12.527Z,9.23
2018-12-14T10:39:40.103Z,8.47
2018-12-14T10:42:07.145Z,7.17
2018-12-14T10:44:34.083Z,8.63
2018-12-14T10:47:01.965Z,9.67
2018-12-14T10:49:29.245Z,8.67
2018-12-14T10:51:56.452Z,9.70
2018-12-14T10:54:24.299Z,8.87
2018-12-14T10:56:51.607Z,8.83
2018-12-14T10:59:31.746Z,8.03
2018-12-14T11:01:58.822Z,9.00
2018-12-14T11:04:28.390Z,7.90
2018-12-14T11:06:55.783Z,8.57
2018-12-14T11:09:30.471Z,9.00
2018-12-14T11:11:58.465Z,8.10
2018-12-14T11:14:25.974Z,7.37
2018-12-14T11:16:53.762Z,7.17
2018-12-14T11:19:21.436Z,7.97
2018-12-14T11:21:49.257Z,8.23
2018-12-14T11:24:16.670Z,9.63
2018-12-14T11:26:43.959Z,8.90
2018-12-14T11:29:11.230Z,8.20
2018-12-14T11:31:38.776Z,7.20
2018-12-14T11:34:06.526Z,6.83
2018-12-14T11:36:35.676Z,14.80
2018-12-14T11:39:04.302Z,8.13
2018-12-14T11:41:31.952Z,7.63
2018-12-14T11:43:59.201Z,8.63
2018-12-14T11:46:26.587Z,7.80
2018-12-14T11:48:53.583Z,7.07
2018-12-14T11:51:23.543Z,8.50
2018-12-14T11:53:50.829Z,7.20
2018-12-14T11:56:17.847Z,7.00
2018-12-14T11:58:44.843Z,8.57
2018-12-14T12:01:11.888Z,7.70
2018-12-14T12:03:42.815Z,9.70
2018-12-14T12:06:05.934Z,8.07
2018-12-14T12:08:32.999Z,8.40
2018-12-14T12:10:59.954Z,11.97
2018-12-14T12:13:26.916Z,8.20
2018-12-14T12:15:53.987Z,8.00
2018-12-14T12:18:20.940Z,8.50
2018-12-14T12:20:48.065Z,8.40
2018-12-14T12:23:15.113Z,10.03
2018-12-14T12:25:43.029Z,8.30
2018-12-14T12:28:10.670Z,7.33
2018-12-14T12:30:37.682Z,7.93
2018-12-14T12:33:07.749Z,9.60
2018-12-14T12:35:51.886Z,8.50
2018-12-14T12:38:20.802Z,8.03
2018-12-14T12:40:47.945Z,7.97
2018-12-14T12:43:18.341Z,9.33
2018-12-14T12:45:49.237Z,7.43
2018-12-14T12:48:18.259Z,9.00
2018-12-14T12:50:49.867Z,11.80
2018-12-14T12:53:18.391Z,8.20
2018-12-14T12:55:51.093Z,9.27
2018-12-14T12:58:22.435Z,8.77
2018-12-14T13:00:49.588Z,7.40
2018-12-14T13:03:34.948Z,7.03
2018-12-14T13:06:01.980Z,6.63
2018-12-14T13:08:29.150Z,5.77
2018-12-14T13:10:57.048Z,6.73
2018-12-14T13:13:24.548Z,7.13
2018-12-14T13:15:51.526Z,6.53
2018-12-14T13:18:18.681Z,5.47
2018-12-14T13:20:47.347Z,5.30
2018-12-14T13:23:14.462Z,6.57
2018-12-14T13:25:42.157Z,5.67
2018-12-14T13:28:10.090Z,6.10
2018-12-14T13:30:37.191Z,6.90
2018-12-14T13:33:04.307Z,6.47
2018-12-14T13:35:31.696Z,7.30
2018-12-14T13:37:58.869Z,6.67
2018-12-14T13:40:26.042Z,8.33
2018-12-14T13:42:53.142Z,8.77
2018-12-14T13:45:20.912Z,9.07
2018-12-14T13:47:48.202Z,8.07
2018-12-14T13:50:15.401Z,10.27
2018-12-14T13:52:42.556Z,10.23
2018-12-14T13:55:10.488Z,9.67
2018-12-14T13:57:37.778Z,9.83
2018-12-14T14:00:06.278Z,8.63
2018-12-14T14:02:33.476Z,8.10
2018-12-14T14:05:00.614Z,7.63
2018-12-14T14:07:27.758Z,8.00
2018-12-14T14:09:55.408Z,7.77
2018-12-14T14:12:22.433Z,7.80
2018-12-14T14:14:53.107Z,8.13
2018-12-14T14:17:18.445Z,9.07
2018-12-14T14:19:45.715Z,8.60
2018-12-14T14:22:21.725Z,15.13
2018-12-14T14:24:48.999Z,8.83
2018-12-14T14:27:16.021Z,8.53
2018-12-14T14:29:43.403Z,9.00
2018-12-14T14:32:10.532Z,9.13
2018-12-14T14:34:37.911Z,10.13
2018-12-14T14:37:05.091Z,11.17
2018-12-14T14:39:35.637Z,10.70
2018-12-14T14:42:08.515Z,11.43
2018-12-14T14:44:35.860Z,13.90
2018-12-14T14:47:02.930Z,10.60
2018-12-14T14:49:31.962Z,12.23
2018-12-14T14:51:59.074Z,11.43
2018-12-14T14:54:27.236Z,10.83
2018-12-14T14:56:58.215Z,11.17
2018-12-14T14:59:32.052Z,10.90
2018-12-14T15:02:04.044Z,12.27
2018-12-14T15:04:31.431Z,12.20
2018-12-14T15:06:58.621Z,13.77
2018-12-14T15:09:27.251Z,12.20
2018-12-14T15:11:54.531Z,13.33
2018-12-14T15:14:21.550Z,13.70
2018-12-14T15:16:48.605Z,14.60
2018-12-14T15:19:16.451Z,13.87
2018-12-14T15:21:43.528Z,15.97
2018-12-14T15:24:11.074Z,13.60
2018-12-14T15:26:38.068Z,13.83
2018-12-14T15:29:05.212Z,14.13
2018-12-14T15:31:32.368Z,14.60
2018-12-14T15:33:59.378Z,14.80
2018-12-14T15:36:26.466Z,14.07
2018-12-14T15:38:53.660Z,17.40
2018-12-14T15:41:20.930Z,18.90
2018-12-14T15:43:49.443Z,19.10
2018-12-14T15:46:16.694Z,18.00
2018-12-14T15:48:44.300Z,18.13
2018-12-14T15:51:11.336Z,17.27
2018-12-14T15:53:38.385Z,16.67
2018-12-14T15:56:05.501Z,16.63
2018-12-14T15:58:32.895Z,17.40
2018-12-14T16:00:59.904Z,15.43
2018-12-14T16:03:27.819Z,15.60
2018-12-14T16:05:54.875Z,15.53
2018-12-14T16:08:22.025Z,16.90
2018-12-14T16:10:50.332Z,15.03
2018-12-14T16:13:18.140Z,16.37
2018-12-14T16:15:45.526Z,16.73
2018-12-14T16:18:12.679Z,15.87
2018-12-14T16:20:39.842Z,16.13
2018-12-14T16:23:07.273Z,15.83
2018-12-14T16:25:34.621Z,16.60
2018-12-14T16:28:02.382Z,16.07
2018-12-14T16:30:29.538Z,16.97
2018-12-14T16:32:56.595Z,17.20
2018-12-14T16:35:23.665Z,17.83
2018-12-14T16:37:51.342Z,17.60
2018-12-14T16:40:17.811Z,16.60
2018-12-14T16:42:44.910Z,16.53
2018-12-14T16:45:11.959Z,17.90
2018-12-14T16:47:39.548Z,16.27
2018-12-14T16:50:07.511Z,18.20
2018-12-14T16:52:34.633Z,16.23
2018-12-14T16:55:01.664Z,18.10
2018-12-14T16:57:28.618Z,19.40
2018-12-14T16:59:56.591Z,16.60
2018-12-14T17:02:23.588Z,19.17
2018-12-14T17:04:51.430Z,17.03
2018-12-14T17:07:18.449Z,17.73
2018-12-14T17:09:46.471Z,17.67
2018-12-14T17:12:14.176Z,16.63
2018-12-14T17:14:41.126Z,16.90
2018-12-14T17:17:08.145Z,17.03
2018-12-14T17:19:35.151Z,24.07
2018-12-14T17:22:02.131Z,17.37
2018-12-14T17:24:29.105Z,19.77
2018-12-14T17:26:56.862Z,19.13
2018-12-14T17:29:23.885Z,18.10
2018-12-14T17:31:50.867Z,18.47
2018-12-14T17:34:17.939Z,17.80
2018-12-14T17:36:44.959Z,16.90
2018-12-14T17:39:11.982Z,16.07
2018-12-14T17:41:39.396Z,18.03
2018-12-14T17:44:07.737Z,16.20
2018-12-14T17:46:35.922Z,19.37
2018-12-14T17:49:03.125Z,17.33
2018-12-14T17:51:30.503Z,19.80
2018-12-14T17:53:57.603Z,19.00
2018-12-14T17:56:27.788Z,21.03
2018-12-14T17:59:00.714Z,19.30
2018-12-14T18:01:28.034Z,18.63
2018-12-14T18:03:55.234Z,18.27
2018-12-14T18:06:25.634Z,17.80
2018-12-14T18:08:52.786Z,19.90
2018-12-14T18:11:20.214Z,18.30
2018-12-14T18:13:47.400Z,21.57
2018-12-14T18:16:14.762Z,20.17
2018-12-14T18:18:42.996Z,19.13
2018-12-14T18:21:11.141Z,27.73
2018-12-14T18:23:41.536Z,18.37
2018-12-14T18:26:08.821Z,23.57
2018-12-14T18:28:35.949Z,20.17
2018-12-14T18:31:03.076Z,19.43
2018-12-14T18:33:30.230Z,20.20
2018-12-14T18:35:57.901Z,20.83
2018-12-14T18:38:25.992Z,20.73
2018-12-14T18:40:53.150Z,19.30
2018-12-14T18:43:20.393Z,19.67
2018-12-14T18:45:53.104Z,20.23
2018-12-14T18:48:15.711Z,22.63
2018-12-14T18:50:42.865Z,20.73
2018-12-14T18:53:09.941Z,19.93
2018-12-14T18:55:37.032Z,19.50
2018-12-14T18:58:04.135Z,19.80
2018-12-14T19:00:33.617Z,20.33
2018-12-14T19:03:01.491Z,20.07
2018-12-14T19:05:28.664Z,20.23
2018-12-14T19:07:55.715Z,20.27
2018-12-14T19:10:22.930Z,22.93
2018-12-14T19:12:50.057Z,21.90
2018-12-14T19:15:17.205Z,20.87
2018-12-14T19:17:44.306Z,20.13
2018-12-14T19:20:11.493Z,22.33
2018-12-14T19:22:38.625Z,20.13
2018-12-14T19:25:05.863Z,21.37
2018-12-14T19:27:33.161Z,19.17
2018-12-14T19:30:00.291Z,18.37
2018-12-14T19:32:27.457Z,18.83
2018-12-14T19:34:54.693Z,19.97
2018-12-14T19:37:21.882Z,20.57
2018-12-14T19:39:48.990Z,20.27
2018-12-14T19:44:52.236Z,21.10
2018-12-14T19:47:33.632Z,20.73
2018-12-14T19:50:12.542Z,21.47
2018-12-14T19:52:49.484Z,22.00
2018-12-14T19:55:27.408Z,19.53
2018-12-14T19:58:04.667Z,20.57
2018-12-14T20:00:41.987Z,23.07
2018-12-14T20:03:17.599Z,19.07
2018-12-14T20:05:57.369Z,18.60
2018-12-14T20:08:24.788Z,19.47
2018-12-14T20:10:52.101Z,19.43
2018-12-14T20:13:19.243Z,18.77
2018-12-14T20:15:46.884Z,19.47
2018-12-14T20:18:16.155Z,20.53
2018-12-14T20:20:43.428Z,21.17
2018-12-14T20:23:10.523Z,19.87
2018-12-14T20:25:37.847Z,20.33
2018-12-14T20:28:05.022Z,20.33
2018-12-14T20:30:39.283Z,21.97
2018-12-14T20:33:07.276Z,23.57
2018-12-14T20:35:34.967Z,19.17
2018-12-14T20:38:02.847Z,19.73
2018-12-14T20:40:30.350Z,19.03
2018-12-14T20:42:57.820Z,20.97
2018-12-14T20:45:27.648Z,18.60
2018-12-14T20:47:58.362Z,20.07
2018-12-14T20:50:29.910Z,20.70
2018-12-14T20:52:57.011Z,19.10
2018-12-14T20:55:24.337Z,18.47
2018-12-14T20:57:51.497Z,17.13
2018-12-14T21:00:18.673Z,18.57
2018-12-14T21:02:46.814Z,17.00
2018-12-14T21:05:13.971Z,16.83
2018-12-14T21:07:41.103Z,17.83
2018-12-14T21:10:10.207Z,17.33
2018-12-14T21:17:33.082Z,16.50
2018-12-14T21:20:00.917Z,17.33
2018-12-14T21:22:28.093Z,17.70
2018-12-14T21:24:55.077Z,16.90
2018-12-14T21:27:22.685Z,17.07
2018-12-14T21:29:49.708Z,15.67
2018-12-14T21:32:16.797Z,15.73
2018-12-14T21:34:44.834Z,15.27
2018-12-14T21:37:11.839Z,16.20
2018-12-14T21:39:38.872Z,15.87
2018-12-14T21:42:05.887Z,15.30
2018-12-14T21:44:33.044Z,14.33
2018-12-14T21:47:01.024Z,15.67
2018-12-14T21:49:28.159Z,15.50
2018-12-14T21:51:55.220Z,14.00
2018-12-14T21:54:23.255Z,14.27
2018-12-14T21:56:50.224Z,14.20
2018-12-14T21:59:17.233Z,14.97
2018-12-14T22:01:44.327Z,14.83
2018-12-14T22:04:11.395Z,15.07
2018-12-14T22:06:38.434Z,13.10
2018-12-14T22:09:07.882Z,15.67
2018-12-14T22:11:35.007Z,15.07
2018-12-14T22:14:02.057Z,14.20
2018-12-14T22:16:29.047Z,14.30
2018-12-14T22:18:56.103Z,14.03
2018-12-14T22:21:23.032Z,14.73
2018-12-14T22:23:50.102Z,13.43
2018-12-14T22:26:18.069Z,16.20
2018-12-14T22:28:45.080Z,15.37
2018-12-14T22:31:17.125Z,13.83
2018-12-14T22:33:44.212Z,14.10
2018-12-14T22:36:12.270Z,14.90
2018-12-14T22:38:39.344Z,13.17
2018-12-14T22:41:06.331Z,13.97
2018-12-14T22:43:33.471Z,13.77
2018-12-14T22:46:00.481Z,14.53
2018-12-14T22:48:27.496Z,14.10
2018-12-14T22:50:54.511Z,14.70
2018-12-14T22:53:21.554Z,14.13
2018-12-14T22:55:49.293Z,14.77
2018-12-14T22:58:16.333Z,14.07
2018-12-14T23:00:49.122Z,15.47
2018-12-14T23:03:16.079Z,13.77
2018-12-14T23:05:43.088Z,14.17
2018-12-14T23:08:10.054Z,14.13
2018-12-14T23:10:36.990Z,13.13
2018-12-14T23:13:03.987Z,13.20
2018-12-14T23:15:31.150Z,13.43
2018-12-14T23:17:58.196Z,12.57
2018-12-14T23:20:25.222Z,12.70
2018-12-14T23:22:52.222Z,12.23
2018-12-14T23:25:19.226Z,12.50
2018-12-14T23:27:46.202Z,13.03
2018-12-14T23:30:13.230Z,12.43
2018-12-14T23:32:41.545Z,13.37
2018-12-14T23:35:08.609Z,11.70
2018-12-14T23:37:35.594Z,12.77
2018-12-14T23:40:02.647Z,12.47
2018-12-14T23:42:29.604Z,11.33
2018-12-14T23:44:56.561Z,11.90
2018-12-14T23:47:23.495Z,11.53
2018-12-14T23:49:50.445Z,12.33
2018-12-14T23:52:17.401Z,11.60
2018-12-14T23:54:45.000Z,11.10
2018-12-14T23:57:13.513Z,11.60
2018-12-14T23:59:40.495Z,12.27
